createdAt,value
2018-01-17T00:01:02.306Z,4.50
2018-01-17T00:02:06.113Z,4.50
2018-01-17T00:03:10.350Z,4.50
2018-01-17T00:04:14.589Z,4.50
2018-01-17T00:05:18.881Z,4.40
2018-01-17T00:06:22.847Z,4.40
2018-01-17T00:07:26.990Z,4.50
2018-01-17T00:08:31.234Z,4.40
2018-01-17T00:09:35.133Z,4.40
2018-01-17T00:10:39.374Z,4.40
2018-01-17T00:11:43.542Z,4.40
2018-01-17T00:12:48.083Z,4.40
2018-01-17T00:13:51.936Z,4.30
2018-01-17T00:14:55.985Z,4.30
2018-01-17T00:16:00.111Z,4.30
2018-01-17T00:17:04.336Z,4.30
2018-01-17T00:18:09.153Z,4.30
2018-01-17T00:19:13.962Z,4.30
2018-01-17T00:20:18.025Z,4.30
2018-01-17T00:21:22.073Z,4.30
2018-01-17T00:22:35.766Z,4.30
2018-01-17T00:23:39.852Z,4.30
2018-01-17T00:24:43.932Z,4.30
2018-01-17T00:25:48.014Z,4.40
2018-01-17T00:26:52.900Z,4.40
2018-01-17T00:27:57.780Z,4.40
2018-01-17T00:29:02.108Z,4.40
2018-01-17T00:30:06.258Z,4.40
2018-01-17T00:31:11.022Z,4.50
2018-01-17T00:32:15.268Z,4.50
2018-01-17T00:33:20.460Z,4.70
2018-01-17T00:34:24.837Z,4.70
2018-01-17T00:35:28.924Z,4.70
2018-01-17T00:36:33.682Z,4.70
2018-01-17T00:37:37.781Z,4.70
2018-01-17T00:38:41.776Z,4.70
2018-01-17T00:39:46.180Z,4.70
2018-01-17T00:40:50.436Z,4.70
2018-01-17T00:41:54.695Z,4.70
2018-01-17T00:42:58.836Z,4.70
2018-01-17T00:44:02.896Z,4.70
2018-01-17T00:45:07.102Z,4.70
2018-01-17T00:46:11.107Z,4.80
2018-01-17T00:47:15.418Z,4.90
2018-01-17T00:48:19.429Z,4.90
2018-01-17T00:49:23.428Z,4.90
2018-01-17T00:50:27.498Z,4.90
2018-01-17T00:51:31.501Z,5.00
2018-01-17T00:52:35.845Z,5.00
2018-01-17T00:53:39.905Z,5.10
2018-01-17T00:54:43.956Z,5.20
2018-01-17T00:55:47.976Z,5.10
2018-01-17T00:56:52.905Z,5.00
2018-01-17T00:57:56.969Z,5.00
2018-01-17T00:59:01.244Z,5.10
2018-01-17T01:00:05.505Z,5.20
2018-01-17T01:01:09.561Z,5.20
2018-01-17T01:02:13.405Z,5.20
2018-01-17T01:03:17.238Z,5.20
2018-01-17T01:04:21.146Z,5.20
2018-01-17T01:05:25.299Z,5.20
2018-01-17T01:06:30.094Z,5.20
2018-01-17T01:07:35.252Z,5.30
2018-01-17T01:08:39.320Z,5.30
2018-01-17T01:09:44.159Z,5.50
2018-01-17T01:10:48.605Z,5.50
2018-01-17T01:11:53.308Z,5.80
2018-01-17T01:12:58.087Z,5.70
2018-01-17T01:14:02.260Z,5.70
2018-01-17T01:15:06.349Z,5.70
2018-01-17T01:16:11.313Z,5.80
2018-01-17T01:17:15.699Z,5.70
2018-01-17T01:18:19.613Z,5.60
2018-01-17T01:19:23.412Z,5.50
2018-01-17T01:20:27.401Z,5.40
2018-01-17T01:21:31.521Z,5.40
2018-01-17T01:22:35.393Z,5.40
2018-01-17T01:23:39.214Z,5.40
2018-01-17T01:24:43.049Z,5.40
2018-01-17T01:25:47.738Z,5.50
2018-01-17T01:26:51.650Z,5.50
2018-01-17T01:27:55.770Z,5.40
2018-01-17T01:29:00.769Z,5.40
2018-01-17T01:30:05.014Z,5.30
2018-01-17T01:31:09.099Z,5.30
2018-01-17T01:32:13.845Z,5.00
2018-01-17T01:33:17.871Z,5.00
2018-01-17T01:34:21.843Z,5.00
2018-01-17T01:35:26.109Z,4.90
2018-01-17T01:36:30.173Z,4.90
2018-01-17T01:37:34.123Z,4.70
2018-01-17T01:38:38.871Z,4.70
2018-01-17T01:39:42.981Z,4.70
2018-01-17T01:40:46.852Z,4.70
2018-01-17T01:41:51.481Z,4.70
2018-01-17T01:42:55.355Z,4.70
2018-01-17T01:43:59.961Z,4.70
2018-01-17T01:45:03.860Z,4.60
2018-01-17T01:46:08.769Z,4.60
2018-01-17T01:47:13.393Z,4.60
2018-01-17T01:48:18.138Z,4.60
2018-01-17T01:49:22.370Z,4.60
2018-01-17T01:50:26.389Z,4.60
2018-01-17T01:51:30.569Z,4.60
2018-01-17T01:52:34.628Z,4.50
2018-01-17T01:53:39.842Z,4.60
2018-01-17T01:54:44.077Z,4.60
2018-01-17T01:55:57.843Z,4.60
2018-01-17T01:57:08.598Z,4.50
2018-01-17T01:58:12.814Z,4.50
2018-01-17T01:59:17.345Z,4.50
2018-01-17T02:00:23.584Z,4.60
2018-01-17T02:01:27.741Z,4.60
2018-01-17T02:02:32.263Z,4.60
2018-01-17T02:03:36.577Z,4.60
2018-01-17T02:04:40.582Z,4.60
2018-01-17T02:05:44.997Z,4.60
2018-01-17T02:06:49.047Z,4.60
2018-01-17T02:07:53.916Z,4.50
2018-01-17T02:08:58.608Z,4.50
2018-01-17T02:10:02.447Z,4.50
2018-01-17T02:11:06.317Z,4.50
2018-01-17T02:12:10.200Z,4.60
2018-01-17T02:13:14.029Z,4.60
2018-01-17T02:14:17.897Z,4.50
2018-01-17T02:15:21.716Z,4.50
2018-01-17T02:16:25.532Z,4.50
2018-01-17T02:17:29.797Z,4.40
2018-01-17T02:18:33.672Z,4.40
2018-01-17T02:19:38.744Z,4.30
2018-01-17T02:20:42.572Z,4.30
2018-01-17T02:21:46.386Z,4.30
2018-01-17T02:22:51.028Z,4.30
2018-01-17T02:23:55.382Z,4.20
2018-01-17T02:24:59.461Z,4.20
2018-01-17T02:26:03.561Z,4.20
2018-01-17T02:27:07.407Z,4.30
2018-01-17T02:28:11.357Z,4.30
2018-01-17T02:29:15.301Z,4.30
2018-01-17T02:30:19.256Z,4.30
2018-01-17T02:31:23.155Z,4.30
2018-01-17T02:32:27.423Z,4.20
2018-01-17T02:33:31.564Z,4.20
2018-01-17T02:34:35.875Z,4.20
2018-01-17T02:35:40.309Z,4.20
2018-01-17T02:37:55.260Z,4.40
2018-01-17T02:38:59.668Z,4.40
2018-01-17T02:40:41.628Z,4.40
2018-01-17T02:41:45.446Z,4.40
2018-01-17T02:42:49.710Z,4.40
2018-01-17T02:43:53.541Z,4.40
2018-01-17T02:44:57.372Z,4.40
2018-01-17T02:46:02.241Z,4.40
2018-01-17T02:47:06.970Z,4.40
2018-01-17T02:48:11.029Z,4.40
2018-01-17T02:49:15.014Z,4.40
2018-01-17T02:50:19.710Z,4.30
2018-01-17T02:51:23.613Z,4.30
2018-01-17T02:52:27.485Z,4.30
2018-01-17T02:53:31.372Z,4.30
2018-01-17T02:54:35.513Z,4.40
2018-01-17T02:55:39.474Z,4.40
2018-01-17T02:56:43.419Z,4.40
2018-01-17T02:57:48.301Z,4.40
2018-01-17T02:58:52.177Z,4.40
2018-01-17T02:59:56.053Z,4.40
2018-01-17T03:01:00.184Z,4.40
2018-01-17T03:02:04.303Z,4.30
2018-01-17T03:03:08.859Z,4.30
2018-01-17T03:04:12.907Z,4.30
2018-01-17T03:05:17.009Z,4.30
2018-01-17T03:06:21.266Z,4.30
2018-01-17T03:07:25.790Z,4.20
2018-01-17T03:08:29.924Z,4.20
2018-01-17T03:09:34.309Z,4.20
2018-01-17T03:10:38.374Z,4.20
2018-01-17T03:11:44.660Z,4.20
2018-01-17T03:12:49.375Z,4.10
2018-01-17T03:13:53.723Z,4.20
2018-01-17T03:14:58.445Z,4.20
2018-01-17T03:16:02.422Z,4.20
2018-01-17T03:17:06.318Z,4.20
2018-01-17T03:18:10.232Z,4.10
2018-01-17T03:19:14.029Z,4.10
2018-01-17T03:20:17.832Z,4.20
2018-01-17T03:21:21.796Z,4.20
2018-01-17T03:22:25.684Z,4.20
2018-01-17T03:23:29.722Z,4.20
2018-01-17T03:24:33.850Z,4.20
2018-01-17T03:25:37.756Z,4.20
2018-01-17T03:26:41.601Z,4.20
2018-01-17T03:27:45.691Z,4.20
2018-01-17T03:28:49.767Z,4.20
2018-01-17T03:29:55.365Z,4.20
2018-01-17T03:31:00.055Z,4.20
2018-01-17T03:32:04.012Z,4.10
2018-01-17T03:33:08.138Z,4.10
2018-01-17T03:34:12.292Z,4.10
2018-01-17T03:35:16.365Z,4.00
2018-01-17T03:36:20.886Z,4.00
2018-01-17T03:37:25.133Z,4.10
2018-01-17T03:38:29.562Z,4.10
2018-01-17T03:39:34.375Z,4.10
2018-01-17T03:40:39.268Z,4.10
2018-01-17T03:41:43.301Z,4.10
2018-01-17T03:42:48.367Z,4.10
2018-01-17T03:43:52.360Z,4.10
2018-01-17T03:44:56.657Z,4.10
2018-01-17T03:46:00.656Z,4.20
2018-01-17T03:47:04.691Z,4.10
2018-01-17T03:48:08.780Z,4.10
2018-01-17T03:49:13.069Z,4.10
2018-01-17T03:50:17.199Z,4.10
2018-01-17T03:51:21.502Z,4.20
2018-01-17T03:52:25.739Z,4.20
2018-01-17T03:53:31.445Z,4.10
2018-01-17T03:54:35.422Z,4.10
2018-01-17T03:55:39.269Z,4.10
2018-01-17T03:56:43.178Z,4.10
2018-01-17T03:57:47.780Z,4.20
2018-01-17T03:58:51.640Z,4.20
2018-01-17T03:59:55.546Z,4.20
2018-01-17T04:00:59.724Z,4.20
2018-01-17T04:02:03.533Z,4.20
2018-01-17T04:03:07.331Z,4.20
2018-01-17T04:04:11.452Z,4.20
2018-01-17T04:05:15.490Z,4.20
2018-01-17T04:06:20.333Z,4.20
2018-01-17T04:07:24.581Z,4.20
2018-01-17T04:08:28.612Z,4.20
2018-01-17T04:09:33.410Z,4.20
2018-01-17T04:10:37.441Z,4.20
2018-01-17T04:11:42.256Z,4.20
2018-01-17T04:12:47.387Z,4.30
2018-01-17T04:13:52.081Z,4.30
2018-01-17T04:14:56.734Z,4.30
2018-01-17T04:16:00.611Z,4.30
2018-01-17T04:17:05.190Z,4.40
2018-01-17T04:18:09.081Z,4.40
2018-01-17T04:19:13.208Z,4.40
2018-01-17T04:20:17.082Z,4.40
2018-01-17T04:21:20.970Z,4.40
2018-01-17T04:22:24.867Z,4.40
2018-01-17T04:23:29.070Z,4.40
2018-01-17T04:24:33.429Z,4.30
2018-01-17T04:25:38.484Z,3.10
2018-01-17T04:26:42.563Z,3.10
2018-01-17T04:27:47.384Z,2.40
2018-01-17T04:28:51.513Z,2.30
2018-01-17T04:29:55.522Z,2.20
2018-01-17T04:30:59.500Z,2.10
2018-01-17T04:32:03.453Z,2.00
2018-01-17T04:33:07.334Z,1.90
2018-01-17T04:34:11.441Z,1.70
2018-01-17T04:35:15.329Z,1.60
2018-01-17T04:36:19.197Z,1.50
2018-01-17T04:37:23.896Z,1.50
2018-01-17T04:38:28.826Z,1.50
2018-01-17T04:39:32.669Z,1.50
2018-01-17T04:40:36.601Z,1.40
2018-01-17T04:41:41.202Z,1.40
2018-01-17T04:42:45.009Z,1.30
2018-01-17T04:43:49.788Z,1.40
2018-01-17T04:44:53.876Z,1.40
2018-01-17T04:45:58.010Z,1.40
2018-01-17T04:47:01.990Z,1.40
2018-01-17T04:48:05.966Z,1.40
2018-01-17T04:49:10.259Z,1.40
2018-01-17T04:50:14.729Z,1.40
2018-01-17T04:51:18.714Z,1.40
2018-01-17T04:52:22.591Z,1.30
2018-01-17T04:53:26.417Z,1.30
2018-01-17T04:54:30.538Z,1.20
2018-01-17T04:55:35.143Z,1.10
2018-01-17T04:56:39.864Z,1.10
2018-01-17T04:57:43.788Z,1.00
2018-01-17T04:58:47.582Z,1.00
2018-01-17T04:59:51.391Z,0.90
2018-01-17T05:00:55.237Z,0.80
2018-01-17T05:01:59.250Z,0.80
2018-01-17T05:03:04.106Z,0.70
2018-01-17T05:04:08.209Z,0.70
2018-01-17T05:05:12.588Z,0.60
2018-01-17T05:06:17.404Z,0.60
2018-01-17T05:07:22.498Z,0.50
2018-01-17T05:08:26.581Z,0.50
2018-01-17T05:09:30.728Z,0.50
2018-01-17T05:10:34.952Z,0.50
2018-01-17T05:11:39.224Z,0.40
2018-01-17T05:12:43.507Z,0.40
2018-01-17T05:13:48.001Z,0.40
2018-01-17T05:14:52.162Z,0.30
2018-01-17T05:15:56.361Z,0.30
2018-01-17T05:17:00.551Z,0.30
2018-01-17T05:18:04.572Z,0.30
2018-01-17T05:19:09.720Z,0.30
2018-01-17T05:20:14.216Z,0.30
2018-01-17T05:21:19.241Z,0.30
2018-01-17T05:22:24.276Z,0.30
2018-01-17T05:23:29.183Z,0.30
2018-01-17T05:24:34.267Z,0.40
2018-01-17T05:25:38.650Z,0.30
2018-01-17T05:26:42.869Z,0.30
2018-01-17T05:27:46.991Z,0.30
2018-01-17T05:28:51.204Z,0.30
2018-01-17T05:29:55.434Z,0.40
2018-01-17T05:31:00.361Z,0.40
2018-01-17T05:32:05.669Z,0.40
2018-01-17T05:33:09.861Z,0.40
2018-01-17T05:34:14.014Z,0.40
2018-01-17T05:35:18.151Z,0.40
2018-01-17T05:36:22.153Z,0.40
2018-01-17T05:37:26.159Z,0.50
2018-01-17T05:38:30.706Z,0.50
2018-01-17T05:39:35.537Z,0.50
2018-01-17T05:40:40.372Z,0.50
2018-01-17T05:41:44.397Z,0.50
2018-01-17T05:42:48.486Z,0.50
2018-01-17T05:43:52.534Z,0.60
2018-01-17T05:44:56.515Z,0.60
2018-01-17T05:46:00.533Z,0.70
2018-01-17T05:47:04.616Z,0.70
2018-01-17T05:48:08.719Z,0.80
2018-01-17T05:49:12.779Z,0.80
2018-01-17T05:50:16.847Z,0.80
2018-01-17T05:51:20.885Z,0.90
2018-01-17T05:52:24.879Z,1.00
2018-01-17T05:53:28.961Z,1.00
2018-01-17T05:54:33.674Z,1.00
2018-01-17T05:55:38.399Z,1.00
2018-01-17T05:56:43.208Z,1.00
2018-01-17T05:57:47.229Z,1.00
2018-01-17T05:58:51.240Z,1.00
2018-01-17T05:59:55.244Z,1.10
2018-01-17T06:00:59.421Z,1.10
2018-01-17T06:02:04.517Z,1.10
2018-01-17T06:03:08.508Z,1.10
2018-01-17T06:04:12.550Z,1.10
2018-01-17T06:05:17.613Z,1.10
2018-01-17T06:06:21.979Z,1.10
2018-01-17T06:07:26.894Z,1.10
2018-01-17T06:08:32.073Z,1.10
2018-01-17T06:09:36.206Z,1.10
2018-01-17T06:10:40.444Z,1.10
2018-01-17T06:11:44.738Z,1.10
2018-01-17T06:12:49.906Z,1.20
2018-01-17T06:13:54.076Z,1.10
2018-01-17T06:14:59.147Z,1.20
2018-01-17T06:16:03.265Z,1.20
2018-01-17T06:17:07.475Z,1.30
2018-01-17T06:18:11.418Z,1.20
2018-01-17T06:19:15.476Z,1.20
2018-01-17T06:20:19.989Z,1.20
2018-01-17T06:21:23.956Z,1.20
2018-01-17T06:22:27.988Z,1.20
2018-01-17T06:23:32.268Z,1.20
2018-01-17T06:24:37.506Z,1.20
2018-01-17T06:25:41.596Z,1.20
2018-01-17T06:26:46.008Z,1.20
2018-01-17T06:27:50.461Z,1.20
2018-01-17T06:28:54.579Z,1.20
2018-01-17T06:29:58.941Z,1.20
2018-01-17T06:31:03.086Z,1.20
2018-01-17T06:32:07.879Z,1.20
2018-01-17T06:33:12.003Z,1.20
2018-01-17T06:34:17.068Z,1.20
2018-01-17T06:35:21.325Z,1.20
2018-01-17T06:36:25.497Z,1.10
2018-01-17T06:37:30.281Z,1.20
2018-01-17T06:38:35.394Z,1.10
2018-01-17T06:39:39.610Z,1.10
2018-01-17T06:40:44.496Z,1.10
2018-01-17T06:41:49.087Z,1.10
2018-01-17T06:42:53.218Z,1.10
2018-01-17T06:43:57.317Z,1.10
2018-01-17T06:45:01.706Z,1.10
2018-01-17T06:46:05.821Z,1.10
2018-01-17T06:47:09.793Z,1.10
2018-01-17T06:48:13.774Z,1.20
2018-01-17T06:49:17.827Z,1.10
2018-01-17T06:50:22.742Z,1.20
2018-01-17T06:51:26.952Z,1.20
2018-01-17T06:52:31.505Z,1.20
2018-01-17T06:53:36.018Z,1.20
2018-01-17T06:54:40.309Z,1.20
2018-01-17T06:55:45.574Z,1.20
2018-01-17T06:56:50.100Z,1.20
2018-01-17T06:57:54.359Z,1.20
2018-01-17T06:58:58.591Z,1.20
2018-01-17T07:00:02.768Z,1.20
2018-01-17T07:01:07.111Z,1.20
2018-01-17T07:02:11.133Z,1.30
2018-01-17T07:03:15.429Z,1.30
2018-01-17T07:04:19.478Z,1.20
2018-01-17T07:05:24.314Z,1.30
2018-01-17T07:06:28.357Z,1.20
2018-01-17T07:07:32.381Z,1.30
2018-01-17T07:08:36.400Z,1.30
2018-01-17T07:09:41.253Z,1.40
2018-01-17T07:10:45.224Z,1.40
2018-01-17T07:11:49.284Z,1.40
2018-01-17T07:12:53.384Z,1.40
2018-01-17T07:13:57.576Z,1.40
2018-01-17T07:15:03.540Z,1.40
2018-01-17T07:16:07.613Z,1.40
2018-01-17T07:17:13.205Z,1.40
2018-01-17T07:18:17.235Z,1.40
2018-01-17T07:19:22.235Z,1.50
2018-01-17T07:20:27.389Z,1.50
2018-01-17T07:21:31.635Z,1.50
2018-01-17T07:22:35.620Z,1.50
2018-01-17T07:23:39.670Z,1.60
2018-01-17T07:24:44.389Z,1.60
2018-01-17T07:25:49.168Z,1.70
2018-01-17T07:26:53.265Z,1.60
2018-01-17T07:27:57.293Z,1.70
2018-01-17T07:29:02.045Z,1.70
2018-01-17T07:30:06.044Z,1.70
2018-01-17T07:31:10.065Z,1.70
2018-01-17T07:32:14.089Z,1.70
2018-01-17T07:33:18.135Z,1.70
2018-01-17T07:34:22.207Z,1.70
2018-01-17T07:35:26.331Z,1.70
2018-01-17T07:36:30.320Z,1.70
2018-01-17T07:37:35.058Z,1.70
2018-01-17T07:38:39.102Z,1.70
2018-01-17T07:39:43.208Z,1.70
2018-01-17T07:40:47.704Z,1.60
2018-01-17T07:41:51.672Z,1.50
2018-01-17T07:42:55.699Z,1.50
2018-01-17T07:43:59.664Z,1.40
2018-01-17T07:45:03.950Z,1.50
2018-01-17T07:46:08.079Z,1.40
2018-01-17T07:47:12.265Z,1.40
2018-01-17T07:48:17.312Z,1.30
2018-01-17T07:49:21.578Z,1.30
2018-01-17T07:50:25.798Z,1.30
2018-01-17T07:51:30.821Z,1.30
2018-01-17T07:52:35.646Z,1.30
2018-01-17T07:53:40.444Z,1.40
2018-01-17T07:54:44.534Z,1.30
2018-01-17T07:55:48.719Z,1.30
2018-01-17T07:56:52.777Z,1.30
2018-01-17T07:57:57.912Z,1.30
2018-01-17T07:59:01.969Z,1.20
2018-01-17T08:00:06.308Z,1.20
2018-01-17T08:01:15.234Z,1.30
2018-01-17T08:02:19.460Z,1.30
2018-01-17T08:03:23.879Z,1.40
2018-01-17T08:04:28.099Z,1.40
2018-01-17T08:05:32.314Z,1.30
2018-01-17T08:06:36.489Z,1.30
2018-01-17T08:07:40.676Z,1.30
2018-01-17T08:08:44.839Z,1.30
2018-01-17T08:09:49.150Z,1.30
2018-01-17T08:10:53.255Z,1.30
2018-01-17T08:11:58.096Z,1.30
2018-01-17T08:13:02.862Z,1.30
2018-01-17T08:14:07.005Z,1.30
2018-01-17T08:15:12.025Z,1.30
2018-01-17T08:16:17.063Z,1.40
2018-01-17T08:17:22.296Z,1.40
2018-01-17T08:18:26.478Z,1.40
2018-01-17T08:19:31.293Z,1.40
2018-01-17T08:20:38.040Z,1.40
2018-01-17T08:21:42.126Z,1.40
2018-01-17T08:22:46.212Z,1.40
2018-01-17T08:23:50.200Z,1.40
2018-01-17T08:24:54.192Z,1.40
2018-01-17T08:25:58.244Z,1.40
2018-01-17T08:27:04.342Z,1.40
2018-01-17T08:28:08.648Z,1.50
2018-01-17T08:29:12.846Z,1.60
2018-01-17T08:30:17.857Z,1.70
2018-01-17T08:31:22.844Z,1.70
2018-01-17T08:32:27.305Z,1.70
2018-01-17T08:33:31.593Z,1.70
2018-01-17T08:34:36.558Z,1.90
2018-01-17T08:35:41.549Z,1.90
2018-01-17T08:36:46.491Z,1.90
2018-01-17T08:37:50.704Z,1.90
2018-01-17T08:38:54.971Z,2.00
2018-01-17T08:40:01.151Z,2.10
2018-01-17T08:41:06.066Z,2.10
2018-01-17T08:42:10.050Z,2.10
2018-01-17T08:43:14.878Z,2.10
2018-01-17T08:44:18.868Z,2.10
2018-01-17T08:45:23.695Z,2.10
2018-01-17T08:46:28.489Z,2.10
2018-01-17T08:47:32.823Z,2.00
2018-01-17T08:48:36.860Z,2.10
2018-01-17T08:49:40.856Z,2.00
2018-01-17T08:50:44.913Z,2.10
2018-01-17T08:51:49.648Z,2.10
2018-01-17T08:52:54.724Z,2.10
2018-01-17T08:54:00.850Z,2.10
2018-01-17T08:55:04.924Z,2.10
2018-01-17T08:56:08.884Z,2.10
2018-01-17T08:57:12.883Z,2.10
2018-01-17T08:58:16.957Z,2.10
2018-01-17T08:59:21.379Z,2.10
2018-01-17T09:00:27.678Z,2.10
2018-01-17T09:01:32.676Z,2.20
2018-01-17T09:02:37.002Z,2.20
2018-01-17T09:03:41.928Z,2.40
2018-01-17T09:04:46.878Z,2.50
2018-01-17T09:05:51.003Z,2.40
2018-01-17T09:06:55.541Z,2.40
2018-01-17T09:07:59.695Z,2.50
2018-01-17T09:09:04.050Z,2.50
2018-01-17T09:10:08.567Z,2.50
2018-01-17T09:11:12.609Z,2.50
2018-01-17T09:12:16.667Z,2.40
2018-01-17T09:13:20.731Z,2.40
2018-01-17T09:14:24.734Z,2.40
2018-01-17T09:15:28.740Z,2.40
2018-01-17T09:16:33.070Z,2.40
2018-01-17T09:17:37.189Z,2.40
2018-01-17T09:18:42.029Z,2.40
2018-01-17T09:19:47.084Z,2.40
2018-01-17T09:20:51.086Z,2.40
2018-01-17T09:21:55.145Z,2.40
2018-01-17T09:22:59.965Z,2.40
2018-01-17T09:24:04.825Z,2.40
2018-01-17T09:25:08.976Z,2.40
2018-01-17T09:26:14.215Z,2.50
2018-01-17T09:27:19.044Z,2.60
2018-01-17T09:28:24.164Z,2.60
2018-01-17T09:29:28.925Z,2.50
2018-01-17T09:30:33.099Z,2.50
2018-01-17T09:31:37.065Z,2.50
2018-01-17T09:32:41.120Z,2.50
2018-01-17T09:33:45.289Z,2.40
2018-01-17T09:34:50.116Z,2.40
2018-01-17T09:35:54.928Z,2.50
2018-01-17T09:36:59.889Z,2.40
2018-01-17T09:38:04.121Z,2.40
2018-01-17T09:39:08.398Z,2.50
2018-01-17T09:40:12.868Z,2.50
2018-01-17T09:41:17.917Z,2.50
2018-01-17T09:42:22.123Z,2.50
2018-01-17T09:43:26.286Z,2.60
2018-01-17T09:44:31.180Z,2.70
2018-01-17T09:45:36.695Z,2.70
2018-01-17T09:46:40.968Z,2.70
2018-01-17T09:47:45.738Z,2.60
2018-01-17T09:48:50.752Z,2.60
2018-01-17T09:49:54.898Z,2.60
2018-01-17T09:50:59.189Z,2.60
2018-01-17T09:52:03.428Z,2.60
2018-01-17T09:53:09.936Z,2.60
2018-01-17T09:55:16.810Z,2.50
2018-01-17T09:56:21.050Z,2.50
2018-01-17T09:57:26.082Z,2.10
2018-01-17T09:58:31.097Z,2.00
2018-01-17T09:59:37.618Z,2.10
2018-01-17T10:00:41.852Z,2.00
2018-01-17T10:01:46.086Z,2.10
2018-01-17T10:02:50.385Z,2.10
2018-01-17T10:03:54.564Z,2.10
2018-01-17T10:04:58.701Z,2.10
2018-01-17T10:06:03.111Z,2.20
2018-01-17T10:07:07.108Z,2.20
2018-01-17T10:08:11.936Z,2.30
2018-01-17T10:09:15.904Z,2.30
2018-01-17T10:10:19.884Z,2.20
2018-01-17T10:11:24.017Z,2.10
2018-01-17T10:12:30.408Z,2.10
2018-01-17T10:13:37.545Z,2.10
2018-01-17T10:14:45.472Z,2.10
2018-01-17T10:15:52.878Z,2.00
2018-01-17T10:17:01.288Z,2.10
2018-01-17T10:18:05.733Z,2.00
2018-01-17T10:19:10.002Z,2.10
2018-01-17T10:20:14.763Z,2.10
2018-01-17T10:21:18.852Z,2.00
2018-01-17T10:22:23.657Z,2.20
2018-01-17T10:23:27.791Z,2.10
2018-01-17T10:24:31.900Z,2.20
2018-01-17T10:25:37.018Z,2.50
2018-01-17T10:26:41.070Z,2.50
2018-01-17T10:27:45.104Z,2.70
2018-01-17T10:28:49.176Z,2.90
2018-01-17T10:29:53.262Z,3.20
2018-01-17T10:30:57.312Z,3.40
2018-01-17T10:32:01.308Z,3.50
2018-01-17T10:33:06.229Z,3.60
2018-01-17T10:34:11.168Z,3.70
2018-01-17T10:35:15.943Z,3.70
2018-01-17T10:36:20.030Z,3.70
2018-01-17T10:37:24.082Z,3.70
2018-01-17T10:38:28.888Z,3.60
2018-01-17T10:39:33.090Z,3.50
2018-01-17T10:40:37.349Z,3.50
2018-01-17T10:41:42.332Z,3.50
2018-01-17T10:42:47.452Z,3.50
2018-01-17T10:43:52.438Z,3.50
2018-01-17T10:44:57.085Z,3.50
2018-01-17T10:46:01.321Z,3.50
2018-01-17T10:47:06.305Z,3.70
2018-01-17T10:48:10.473Z,3.60
2018-01-17T10:49:14.655Z,3.80
2018-01-17T10:50:18.838Z,3.90
2018-01-17T10:51:23.246Z,4.00
2018-01-17T10:52:28.100Z,4.00
2018-01-17T10:53:32.161Z,4.00
2018-01-17T10:54:36.984Z,3.90
2018-01-17T10:55:41.751Z,3.80
2018-01-17T10:56:45.718Z,3.80
2018-01-17T10:57:50.108Z,3.70
2018-01-17T10:58:55.066Z,3.50
2018-01-17T10:59:59.258Z,3.50
2018-01-17T11:01:03.485Z,3.40
2018-01-17T11:02:07.682Z,3.40
2018-01-17T11:03:11.926Z,3.30
2018-01-17T11:04:16.214Z,3.30
2018-01-17T11:05:20.418Z,3.30
2018-01-17T11:06:24.554Z,3.20
2018-01-17T11:07:29.541Z,3.30
2018-01-17T11:08:33.949Z,3.30
2018-01-17T11:09:38.391Z,3.30
2018-01-17T11:10:42.426Z,3.30
2018-01-17T11:11:46.550Z,3.30
2018-01-17T11:12:50.566Z,3.40
2018-01-17T11:13:54.673Z,3.40
2018-01-17T11:14:58.620Z,3.30
2018-01-17T11:16:03.674Z,3.20
2018-01-17T11:17:07.999Z,3.20
2018-01-17T11:18:12.305Z,3.20
2018-01-17T11:19:16.595Z,3.20
2018-01-17T11:20:20.794Z,3.20
2018-01-17T11:21:25.191Z,3.20
2018-01-17T11:22:29.324Z,3.20
2018-01-17T11:23:33.626Z,3.30
2018-01-17T11:24:37.891Z,3.30
2018-01-17T11:25:42.913Z,3.20
2018-01-17T11:26:47.859Z,3.20
2018-01-17T11:27:52.103Z,3.20
2018-01-17T11:28:56.495Z,3.20
2018-01-17T11:30:00.711Z,3.00
2018-01-17T11:31:04.944Z,3.00
2018-01-17T11:32:09.106Z,3.00
2018-01-17T11:33:13.301Z,3.00
2018-01-17T11:34:17.815Z,3.20
2018-01-17T11:35:22.061Z,3.30
2018-01-17T11:36:26.235Z,3.50
2018-01-17T11:37:30.257Z,3.70
2018-01-17T11:38:34.733Z,3.90
2018-01-17T11:39:40.379Z,4.00
2018-01-17T11:40:44.396Z,4.00
2018-01-17T11:41:48.440Z,4.00
2018-01-17T11:42:53.182Z,4.10
2018-01-17T11:43:57.339Z,4.10
2018-01-17T11:45:01.413Z,3.90
2018-01-17T11:46:05.477Z,4.00
2018-01-17T11:47:09.537Z,4.20
2018-01-17T11:48:13.549Z,4.10
2018-01-17T11:49:18.346Z,4.10
2018-01-17T11:50:22.439Z,4.00
2018-01-17T11:51:26.489Z,4.00
2018-01-17T11:52:31.604Z,3.70
2018-01-17T11:53:36.656Z,3.70
2018-01-17T11:54:40.796Z,3.60
2018-01-17T11:55:45.041Z,3.70
2018-01-17T11:56:49.992Z,3.60
2018-01-17T11:57:54.234Z,3.60
2018-01-17T11:59:00.268Z,3.50
2018-01-17T12:00:04.537Z,3.50
2018-01-17T12:01:09.484Z,3.40
2018-01-17T12:02:13.690Z,3.40
2018-01-17T12:03:17.901Z,3.30
2018-01-17T12:04:22.129Z,3.30
2018-01-17T12:05:28.476Z,3.30
2018-01-17T12:06:32.829Z,3.40
2018-01-17T12:07:37.619Z,3.40
2018-01-17T12:08:41.666Z,3.30
2018-01-17T12:09:45.666Z,3.30
2018-01-17T12:10:50.016Z,3.30
2018-01-17T12:11:54.328Z,3.40
2018-01-17T12:12:58.388Z,3.30
2018-01-17T12:14:02.426Z,3.30
2018-01-17T12:15:06.446Z,3.20
2018-01-17T12:16:10.551Z,3.30
2018-01-17T12:17:14.650Z,3.30
2018-01-17T12:18:19.202Z,3.40
2018-01-17T12:19:24.113Z,3.40
2018-01-17T12:20:28.188Z,3.50
2018-01-17T12:21:34.063Z,3.60
2018-01-17T12:22:38.088Z,3.60
2018-01-17T12:23:42.064Z,3.60
2018-01-17T12:24:46.404Z,3.60
2018-01-17T12:25:50.382Z,3.60
2018-01-17T12:26:54.505Z,3.70
2018-01-17T12:27:58.499Z,3.70
2018-01-17T12:29:02.520Z,3.80
2018-01-17T12:30:06.493Z,3.70
2018-01-17T12:31:10.792Z,3.60
2018-01-17T12:32:14.861Z,3.50
2018-01-17T12:33:18.806Z,3.50
2018-01-17T12:34:22.936Z,3.50
2018-01-17T12:35:26.947Z,3.50
2018-01-17T12:36:31.351Z,3.50
2018-01-17T12:37:35.442Z,3.50
2018-01-17T12:38:39.408Z,3.60
2018-01-17T12:39:43.347Z,3.60
2018-01-17T12:40:47.342Z,3.50
2018-01-17T12:41:52.966Z,3.50
2018-01-17T12:42:57.436Z,3.50
2018-01-17T12:44:02.262Z,3.80
2018-01-17T12:45:06.452Z,3.80
2018-01-17T12:46:11.484Z,4.30
2018-01-17T12:47:16.531Z,4.60
2018-01-17T12:48:21.087Z,4.60
2018-01-17T12:49:25.328Z,4.80
2018-01-17T12:50:29.458Z,4.70
2018-01-17T12:51:33.752Z,4.60
2018-01-17T12:52:38.040Z,4.50
2018-01-17T12:53:42.204Z,4.70
2018-01-17T12:54:46.576Z,4.60
2018-01-17T12:55:50.663Z,4.50
2018-01-17T12:56:55.103Z,4.40
2018-01-17T12:57:59.121Z,4.40
2018-01-17T12:59:03.359Z,4.40
2018-01-17T13:00:08.358Z,4.30
2018-01-17T13:01:12.802Z,4.30
2018-01-17T13:02:17.716Z,4.40
2018-01-17T13:03:22.750Z,4.50
2018-01-17T13:04:27.542Z,4.60
2018-01-17T13:05:31.505Z,4.60
2018-01-17T13:06:35.598Z,4.90
2018-01-17T13:07:39.645Z,5.10
2018-01-17T13:08:43.710Z,5.30
2018-01-17T13:09:47.685Z,5.20
2018-01-17T13:10:51.749Z,5.10
2018-01-17T13:11:56.531Z,4.90
2018-01-17T13:13:00.900Z,4.80
2018-01-17T13:14:05.811Z,4.80
2018-01-17T13:15:09.973Z,4.80
2018-01-17T13:16:14.057Z,5.10
2018-01-17T13:17:18.319Z,5.20
2018-01-17T13:18:23.349Z,5.30
2018-01-17T13:19:30.559Z,5.50
2018-01-17T13:20:34.768Z,5.50
2018-01-17T13:21:39.156Z,5.60
2018-01-17T13:22:43.347Z,5.60
2018-01-17T13:23:48.251Z,5.60
2018-01-17T13:24:52.482Z,5.60
2018-01-17T13:25:56.725Z,5.60
2018-01-17T13:27:01.977Z,5.70
2018-01-17T13:28:06.091Z,5.60
2018-01-17T13:29:10.176Z,5.50
2018-01-17T13:30:14.137Z,5.50
2018-01-17T13:31:18.220Z,5.50
2018-01-17T13:32:23.886Z,5.50
2018-01-17T13:33:27.901Z,5.50
2018-01-17T13:34:31.901Z,5.50
2018-01-17T13:35:36.192Z,5.50
2018-01-17T13:36:40.798Z,5.40
2018-01-17T13:37:45.046Z,5.30
2018-01-17T13:38:49.562Z,5.30
2018-01-17T13:39:53.927Z,5.20
2018-01-17T13:40:58.532Z,5.10
2018-01-17T13:42:02.823Z,5.10
2018-01-17T13:43:07.678Z,5.10
2018-01-17T13:44:12.488Z,5.10
2018-01-17T13:45:16.654Z,5.10
2018-01-17T13:46:21.439Z,5.10
2018-01-17T13:47:25.507Z,5.10
2018-01-17T13:48:29.682Z,5.10
2018-01-17T13:49:34.504Z,4.80
2018-01-17T13:50:39.292Z,4.70
2018-01-17T13:51:43.410Z,4.70
2018-01-17T13:52:47.511Z,4.60
2018-01-17T13:53:51.493Z,4.50
2018-01-17T13:54:55.956Z,4.40
2018-01-17T13:56:00.133Z,4.40
2018-01-17T13:57:05.423Z,4.20
2018-01-17T13:59:40.276Z,4.20
2018-01-17T14:00:44.433Z,4.30
2018-01-17T14:01:48.680Z,4.30
2018-01-17T14:02:52.985Z,4.30
2018-01-17T14:03:57.538Z,4.40
2018-01-17T14:05:02.545Z,4.30
2018-01-17T14:06:07.444Z,4.20
2018-01-17T14:07:11.424Z,4.20
2018-01-17T14:08:15.415Z,4.20
2018-01-17T14:09:19.829Z,4.20
2018-01-17T14:10:23.820Z,4.20
2018-01-17T14:11:27.832Z,4.20
2018-01-17T14:12:31.921Z,4.20
2018-01-17T14:13:35.934Z,4.30
2018-01-17T14:14:39.998Z,4.30
2018-01-17T14:15:44.132Z,4.30
2018-01-17T14:16:48.272Z,4.20
2018-01-17T14:17:52.522Z,4.30
2018-01-17T14:18:56.911Z,4.20
2018-01-17T14:20:01.913Z,4.30
2018-01-17T14:21:06.941Z,4.30
2018-01-17T14:22:10.984Z,4.30